createdAt,value
2018-09-23T00:00:56.594Z,87.71
2018-09-23T00:01:56.609Z,87.14
2018-09-23T00:02:56.545Z,87.33
2018-09-23T00:03:56.542Z,87.81
2018-09-23T00:04:56.540Z,87.62
2018-09-23T00:05:56.558Z,88.86
2018-09-23T00:06:56.539Z,88.29
2018-09-23T00:07:56.535Z,87.71
2018-09-23T00:08:56.538Z,88.19
2018-09-23T00:09:56.530Z,88.38
2018-09-23T00:10:56.529Z,87.43
2018-09-23T00:11:56.525Z,87.43
2018-09-23T00:12:56.526Z,88.19
2018-09-23T00:13:56.523Z,87.62
2018-09-23T00:14:56.521Z,87.71
2018-09-23T00:15:56.521Z,87.23
2018-09-23T00:16:56.522Z,88.00
2018-09-23T00:17:56.516Z,88.19
2018-09-23T00:18:56.515Z,88.48
2018-09-23T00:19:56.510Z,88.57
2018-09-23T00:20:56.517Z,88.57
2018-09-23T00:21:56.508Z,88.48
2018-09-23T00:22:56.507Z,88.67
2018-09-23T00:23:56.503Z,88.76
2018-09-23T00:24:56.515Z,88.76
2018-09-23T00:25:56.542Z,88.86
2018-09-23T00:26:56.501Z,89.05
2018-09-23T00:27:56.496Z,88.67
2018-09-23T00:28:56.495Z,88.95
2018-09-23T00:29:56.495Z,89.24
2018-09-23T00:30:56.491Z,89.05
2018-09-23T00:31:56.487Z,89.05
2018-09-23T00:32:56.490Z,88.86
2018-09-23T00:33:56.494Z,89.05
2018-09-23T00:34:56.486Z,89.53
2018-09-23T00:35:56.479Z,89.72
2018-09-23T00:36:56.479Z,89.62
2018-09-23T00:37:56.475Z,88.95
2018-09-23T00:38:57.561Z,89.72
2018-09-23T00:39:56.473Z,89.53
2018-09-23T00:40:56.473Z,90.20
2018-09-23T00:41:56.471Z,90.77
2018-09-23T00:42:56.468Z,90.58
2018-09-23T00:43:56.465Z,90.67
2018-09-23T00:44:56.463Z,91.16
2018-09-23T00:45:56.465Z,91.53
2018-09-23T00:46:56.476Z,91.35
2018-09-23T00:47:56.460Z,91.25
2018-09-23T00:48:56.459Z,91.73
2018-09-23T00:49:56.454Z,92.21
2018-09-23T00:50:56.455Z,92.02
2018-09-23T00:51:56.451Z,91.92
2018-09-23T00:52:56.448Z,92.02
2018-09-23T00:53:56.452Z,92.02
2018-09-23T00:54:56.464Z,92.83
2018-09-23T00:55:56.448Z,92.11
2018-09-23T00:56:56.455Z,92.07
2018-09-23T00:57:56.451Z,92.02
2018-09-23T00:58:56.435Z,93.02
2018-09-23T00:59:56.449Z,93.12
2018-09-23T01:00:56.431Z,92.74
2018-09-23T01:01:56.429Z,91.97
2018-09-23T01:02:56.439Z,91.97
2018-09-23T01:03:56.445Z,92.93
2018-09-23T01:04:56.424Z,92.93
2018-09-23T01:05:56.422Z,92.40
2018-09-23T01:06:56.418Z,91.68
2018-09-23T01:07:56.416Z,91.68
2018-09-23T01:08:56.415Z,91.16
2018-09-23T01:09:56.414Z,91.20
2018-09-23T01:10:56.410Z,92.16
2018-09-23T01:11:56.407Z,92.07
2018-09-23T01:12:56.404Z,90.92
2018-09-23T01:13:56.405Z,91.35
2018-09-23T01:14:56.415Z,92.25
2018-09-23T01:15:56.403Z,91.97
2018-09-23T01:16:56.400Z,92.16
2018-09-23T01:17:56.418Z,91.59
2018-09-23T01:18:56.394Z,92.16
2018-09-23T01:19:56.392Z,91.78
2018-09-23T01:20:56.432Z,91.97
2018-09-23T01:21:56.402Z,92.07
2018-09-23T01:22:56.386Z,92.07
2018-09-23T01:23:56.383Z,91.97
2018-09-23T01:24:56.379Z,92.07
2018-09-23T01:25:56.869Z,92.35
2018-09-23T01:26:56.474Z,92.07
2018-09-23T01:27:56.373Z,92.07
2018-09-23T01:28:56.373Z,91.88
2018-09-23T01:29:56.371Z,92.64
2018-09-23T01:30:56.368Z,92.93
2018-09-23T01:31:56.365Z,93.21
2018-09-23T01:32:56.365Z,93.02
2018-09-23T01:33:56.367Z,93.31
2018-09-23T01:34:56.358Z,93.02
2018-09-23T01:35:56.354Z,93.31
2018-09-23T01:36:56.354Z,93.02
2018-09-23T01:37:56.358Z,93.31
2018-09-23T01:38:56.355Z,93.12
2018-09-23T01:39:56.347Z,94.17
2018-09-23T01:40:56.345Z,93.88
2018-09-23T01:41:56.340Z,94.46
2018-09-23T01:42:56.340Z,93.98
2018-09-23T01:43:56.346Z,93.69
2018-09-23T01:44:56.334Z,94.26
2018-09-23T01:45:56.333Z,93.69
2018-09-23T01:46:56.492Z,94.55
2018-09-23T01:47:56.334Z,94.36
2018-09-23T01:48:56.323Z,94.55
2018-09-23T01:49:56.326Z,94.46
2018-09-23T01:50:56.322Z,94.93
2018-09-23T01:51:56.317Z,94.84
2018-09-23T01:52:56.357Z,95.03
2018-09-23T01:53:56.315Z,95.61
2018-09-23T01:54:56.313Z,95.41
2018-09-23T01:55:56.306Z,95.51
2018-09-23T01:56:57.250Z,95.79
2018-09-23T01:57:56.304Z,95.79
2018-09-23T01:58:56.300Z,95.89
2018-09-23T01:59:56.297Z,95.89
2018-09-23T02:00:56.299Z,95.70
2018-09-23T02:01:56.291Z,95.41
2018-09-23T02:02:56.292Z,95.79
2018-09-23T02:03:56.286Z,95.89
2018-09-23T02:04:56.281Z,96.37
2018-09-23T02:05:56.284Z,96.27
2018-09-23T02:06:56.278Z,96.27
2018-09-23T02:07:56.279Z,96.27
2018-09-23T02:08:56.271Z,96.37
2018-09-23T02:09:56.274Z,96.56
2018-09-23T02:10:56.266Z,95.70
2018-09-23T02:11:56.263Z,95.70
2018-09-23T02:12:56.266Z,96.47
2018-09-23T02:13:56.261Z,96.47
2018-09-23T02:14:56.257Z,96.47
2018-09-23T02:15:56.253Z,96.56
2018-09-23T02:16:56.256Z,96.37
2018-09-23T02:17:56.248Z,96.18
2018-09-23T02:18:56.248Z,95.98
2018-09-23T02:19:56.245Z,96.37
2018-09-23T02:20:56.242Z,96.47
2018-09-23T02:21:56.239Z,96.47
2018-09-23T02:22:56.237Z,96.08
2018-09-23T02:23:56.235Z,95.79
2018-09-23T02:24:56.232Z,96.18
2018-09-23T02:25:56.228Z,96.37
2018-09-23T02:26:56.226Z,96.56
2018-09-23T02:27:56.223Z,95.51
2018-09-23T02:28:56.221Z,95.51
2018-09-23T02:29:56.221Z,95.70
2018-09-23T02:30:56.216Z,95.41
2018-09-23T02:31:56.214Z,95.51
2018-09-23T02:32:56.212Z,95.70
2018-09-23T02:33:56.212Z,95.61
2018-09-23T02:34:56.217Z,95.32
2018-09-23T02:35:56.204Z,95.70
2018-09-23T02:36:56.200Z,95.03
2018-09-23T02:37:56.203Z,94.74
2018-09-23T02:38:56.196Z,94.84
2018-09-23T02:39:56.193Z,94.84
2018-09-23T02:40:56.191Z,95.03
2018-09-23T02:41:56.192Z,94.84
2018-09-23T02:42:56.186Z,95.61
2018-09-23T02:43:56.184Z,95.70
2018-09-23T02:44:56.188Z,95.89
2018-09-23T02:45:56.179Z,95.70
2018-09-23T02:46:56.178Z,95.12
2018-09-23T02:47:56.174Z,94.65
2018-09-23T02:48:56.172Z,94.84
2018-09-23T02:49:56.171Z,94.36
2018-09-23T02:50:56.169Z,94.65
2018-09-23T02:51:56.163Z,94.46
2018-09-23T02:52:56.161Z,94.65
2018-09-23T02:53:56.159Z,94.74
2018-09-23T02:54:56.157Z,94.74
2018-09-23T02:55:56.153Z,94.46
2018-09-23T02:56:56.151Z,94.46
2018-09-23T02:57:56.152Z,94.07
2018-09-23T02:58:56.149Z,94.65
2018-09-23T02:59:56.144Z,94.36
2018-09-23T03:00:56.147Z,94.17
2018-09-23T03:01:56.140Z,94.36
2018-09-23T03:02:56.138Z,94.36
2018-09-23T03:03:56.135Z,94.84
2018-09-23T03:04:56.136Z,94.65
2018-09-23T03:05:56.134Z,94.55
2018-09-23T03:06:56.132Z,94.55
2018-09-23T03:07:56.125Z,94.84
2018-09-23T03:08:56.124Z,94.93
2018-09-23T03:09:56.125Z,95.70
2018-09-23T03:10:56.122Z,95.70
2018-09-23T03:11:56.116Z,95.41
2018-09-23T03:12:56.118Z,95.51
2018-09-23T03:13:56.111Z,95.89
2018-09-23T03:14:56.109Z,95.51
2018-09-23T03:15:56.108Z,96.08
2018-09-23T03:16:56.103Z,95.70
2018-09-23T03:17:56.101Z,96.37
2018-09-23T03:18:56.100Z,95.79
2018-09-23T03:19:56.096Z,95.79
2018-09-23T03:20:56.094Z,96.56
2018-09-23T03:21:56.094Z,96.27
2018-09-23T03:22:56.090Z,96.47
2018-09-23T03:23:56.085Z,96.27
2018-09-23T03:24:56.083Z,96.13
2018-09-23T03:25:56.080Z,96.32
2018-09-23T03:26:56.079Z,96.03
2018-09-23T03:27:56.079Z,96.66
2018-09-23T03:28:56.399Z,96.70
2018-09-23T03:29:56.070Z,96.75
2018-09-23T03:30:56.069Z,96.70
2018-09-23T03:31:56.065Z,96.51
2018-09-23T03:32:56.062Z,96.51
2018-09-23T03:33:56.060Z,97.28
2018-09-23T03:34:56.058Z,96.89
2018-09-23T03:35:56.053Z,96.51
2018-09-23T03:36:56.051Z,96.89
2018-09-23T03:37:56.048Z,97.08
2018-09-23T03:38:56.046Z,96.61
2018-09-23T03:39:56.044Z,96.61
2018-09-23T03:40:56.039Z,96.70
2018-09-23T03:41:56.042Z,96.61
2018-09-23T03:42:56.035Z,96.70
2018-09-23T03:43:56.043Z,96.61
2018-09-23T03:44:56.030Z,96.99
2018-09-23T03:45:56.030Z,97.37
2018-09-23T03:46:56.027Z,96.51
2018-09-23T03:47:56.021Z,96.51
2018-09-23T03:48:56.019Z,96.80
2018-09-23T03:49:56.016Z,96.80
2018-09-23T03:50:56.013Z,96.51
2018-09-23T03:51:56.010Z,97.47
2018-09-23T03:52:56.008Z,96.70
2018-09-23T03:53:56.006Z,96.32
2018-09-23T03:54:56.004Z,96.03
2018-09-23T03:55:55.999Z,96.32
2018-09-23T03:56:55.996Z,96.22
2018-09-23T03:57:56.001Z,95.94
2018-09-23T03:58:55.996Z,95.36
2018-09-23T03:59:56.797Z,95.56
2018-09-23T04:00:55.986Z,95.75
2018-09-23T04:01:55.984Z,96.13
2018-09-23T04:02:55.981Z,95.75
2018-09-23T04:03:55.977Z,96.13
2018-09-23T04:04:55.975Z,96.32
2018-09-23T04:05:55.972Z,96.22
2018-09-23T04:06:55.970Z,96.03
2018-09-23T04:07:55.971Z,96.32
2018-09-23T04:08:55.968Z,96.42
2018-09-23T04:09:55.964Z,96.32
2018-09-23T04:10:55.962Z,96.32
2018-09-23T04:11:56.014Z,95.56
2018-09-23T04:12:55.956Z,95.46
2018-09-23T04:13:55.953Z,95.84
2018-09-23T04:14:55.958Z,95.27
2018-09-23T04:15:55.945Z,94.89
2018-09-23T04:16:55.946Z,95.07
2018-09-23T04:17:55.941Z,95.07
2018-09-23T04:18:55.939Z,95.27
2018-09-23T04:19:55.938Z,95.56
2018-09-23T04:20:55.933Z,95.36
2018-09-23T04:21:55.934Z,94.89
2018-09-23T04:22:55.928Z,94.46
2018-09-23T04:23:55.930Z,94.74
2018-09-23T04:24:55.929Z,94.31
2018-09-23T04:25:55.921Z,94.51
2018-09-23T04:26:55.918Z,94.41
2018-09-23T04:27:55.918Z,94.26
2018-09-23T04:28:55.917Z,94.89
2018-09-23T04:29:55.912Z,94.60
2018-09-23T04:30:55.906Z,94.93
2018-09-23T04:31:55.904Z,93.88
2018-09-23T04:32:55.903Z,94.55
2018-09-23T04:33:55.900Z,94.17
2018-09-23T04:34:55.898Z,94.55
2018-09-23T04:35:55.895Z,94.26
2018-09-23T04:36:55.893Z,93.98
2018-09-23T04:37:55.889Z,93.88
2018-09-23T04:38:55.890Z,93.98
2018-09-23T04:39:55.893Z,94.07
2018-09-23T04:40:55.881Z,93.88
2018-09-23T04:41:55.882Z,94.07
2018-09-23T04:42:55.878Z,93.88
2018-09-23T04:43:55.875Z,93.98
2018-09-23T04:44:55.905Z,93.98
2018-09-23T04:45:55.892Z,94.46
2018-09-23T04:46:55.869Z,94.46
2018-09-23T04:47:55.864Z,93.88
2018-09-23T04:48:55.866Z,94.74
2018-09-23T04:49:55.863Z,93.88
2018-09-23T04:50:55.863Z,93.93
2018-09-23T04:51:55.861Z,93.98
2018-09-23T04:52:55.857Z,93.88
2018-09-23T04:53:55.898Z,93.93
2018-09-23T04:54:55.847Z,93.98
2018-09-23T04:55:55.847Z,93.98
2018-09-23T04:56:55.843Z,93.21
2018-09-23T04:57:55.840Z,93.88
2018-09-23T04:58:55.838Z,94.26
2018-09-23T04:59:55.835Z,94.07
2018-09-23T05:00:55.838Z,93.21
2018-09-23T05:01:55.831Z,92.93
2018-09-23T05:02:55.829Z,94.26
2018-09-23T05:03:55.825Z,93.98
2018-09-23T05:04:55.829Z,94.46
2018-09-23T05:05:55.822Z,94.36
2018-09-23T05:06:55.875Z,94.46
2018-09-23T05:07:55.816Z,94.84
2018-09-23T05:08:55.815Z,94.46
2018-09-23T05:09:55.813Z,94.17
2018-09-23T05:10:55.810Z,93.79
2018-09-23T05:11:55.811Z,94.36
2018-09-23T05:12:55.805Z,94.17
2018-09-23T05:13:55.803Z,93.79
2018-09-23T05:14:55.812Z,93.98
2018-09-23T05:15:55.798Z,93.79
2018-09-23T05:16:55.795Z,93.60
2018-09-23T05:17:55.792Z,93.21
2018-09-23T05:18:55.793Z,93.21
2018-09-23T05:19:55.789Z,93.88
2018-09-23T05:20:55.785Z,94.26
2018-09-23T05:21:55.784Z,94.36
2018-09-23T05:22:55.783Z,94.17
2018-09-23T05:23:55.777Z,94.26
2018-09-23T05:24:55.777Z,94.17
2018-09-23T05:25:55.774Z,95.22
2018-09-23T05:26:55.776Z,95.70
2018-09-23T05:27:55.769Z,95.41
2018-09-23T05:28:55.770Z,95.70
2018-09-23T05:29:55.763Z,95.32
2018-09-23T05:30:55.816Z,95.51
2018-09-23T05:31:55.906Z,95.51
2018-09-23T05:32:55.757Z,95.03
2018-09-23T05:33:55.754Z,95.12
2018-09-23T05:34:55.754Z,94.65
2018-09-23T05:35:55.750Z,94.65
2018-09-23T05:36:55.746Z,94.26
2018-09-23T05:37:55.747Z,94.36
2018-09-23T05:38:55.744Z,94.65
2018-09-23T05:39:55.738Z,94.17
2018-09-23T05:40:55.736Z,94.93
2018-09-23T05:41:55.736Z,95.12
2018-09-23T05:42:55.733Z,95.41
2018-09-23T05:43:55.781Z,95.51
2018-09-23T05:44:55.727Z,95.98
2018-09-23T05:45:55.724Z,95.89
2018-09-23T05:46:55.722Z,95.51
2018-09-23T05:47:55.719Z,95.61
2018-09-23T05:48:55.717Z,95.70
2018-09-23T05:49:55.731Z,95.89
2018-09-23T05:50:55.712Z,95.98
2018-09-23T05:51:55.711Z,95.79
2018-09-23T05:52:55.709Z,95.51
2018-09-23T05:53:55.707Z,95.89
2018-09-23T05:54:55.704Z,96.27
2018-09-23T05:55:55.700Z,96.08
2018-09-23T05:56:55.698Z,96.56
2018-09-23T05:57:55.696Z,96.37
2018-09-23T05:58:55.693Z,96.37
2018-09-23T05:59:55.689Z,96.18
2018-09-23T06:00:55.693Z,96.47
2018-09-23T06:01:55.685Z,96.94
2018-09-23T06:02:56.289Z,96.56
2018-09-23T06:03:55.680Z,96.75
2018-09-23T06:04:55.679Z,96.47
2018-09-23T06:05:55.675Z,96.56
2018-09-23T06:06:55.675Z,97.04
2018-09-23T06:07:55.670Z,97.04
2018-09-23T06:08:55.747Z,96.66
2018-09-23T06:09:55.669Z,97.23
2018-09-23T06:10:55.664Z,97.42
2018-09-23T06:11:55.663Z,96.94
2018-09-23T06:12:55.659Z,96.80
2018-09-23T06:13:55.655Z,97.28
2018-09-23T06:14:55.656Z,96.70
2018-09-23T06:15:55.654Z,97.47
2018-09-23T06:16:55.649Z,96.89
2018-09-23T06:17:55.649Z,96.42
2018-09-23T06:18:55.646Z,96.61
2018-09-23T06:19:55.642Z,97.08
2018-09-23T06:20:55.640Z,97.47
2018-09-23T06:21:55.636Z,96.80
2018-09-23T06:22:55.635Z,96.75
2018-09-23T06:23:55.635Z,96.75
2018-09-23T06:24:55.632Z,96.84
2018-09-23T06:25:55.630Z,96.89
2018-09-23T06:26:55.625Z,96.75
2018-09-23T06:27:55.624Z,96.51
2018-09-23T06:28:55.620Z,96.80
2018-09-23T06:29:55.617Z,96.70
2018-09-23T06:30:55.618Z,97.18
2018-09-23T06:31:55.613Z,96.94
2018-09-23T06:32:55.610Z,97.33
2018-09-23T06:33:55.608Z,97.42
2018-09-23T06:34:55.609Z,97.04
2018-09-23T06:35:55.605Z,96.84
2018-09-23T06:36:55.615Z,97.23
2018-09-23T06:37:55.602Z,96.66
2018-09-23T06:38:55.596Z,96.56
2018-09-23T06:39:55.593Z,96.75
2018-09-23T06:40:55.593Z,96.37
2018-09-23T06:41:55.593Z,95.98
2018-09-23T06:42:55.596Z,96.84
2018-09-23T06:43:55.584Z,96.47
2018-09-23T06:44:55.581Z,96.47
2018-09-23T06:45:55.581Z,95.61
2018-09-23T06:46:55.583Z,95.98
2018-09-23T06:47:55.575Z,96.27
2018-09-23T06:48:55.572Z,96.27
2018-09-23T06:49:55.569Z,95.70
2018-09-23T06:50:55.600Z,95.51
2018-09-23T06:51:55.566Z,95.51
2018-09-23T06:52:55.564Z,95.51
2018-09-23T06:53:55.563Z,95.70
2018-09-23T06:54:55.561Z,96.37
2018-09-23T06:55:55.562Z,96.56
2018-09-23T06:56:55.610Z,96.08
2018-09-23T06:57:55.553Z,96.66
2018-09-23T06:58:55.554Z,96.08
2018-09-23T06:59:55.546Z,96.75
2018-09-23T07:00:55.547Z,96.08
2018-09-23T07:01:55.541Z,96.56
2018-09-23T07:02:55.540Z,96.08
2018-09-23T07:03:55.535Z,96.94
2018-09-23T07:04:55.575Z,96.37
2018-09-23T07:05:55.531Z,96.56
2018-09-23T07:06:55.532Z,96.56
2018-09-23T07:07:55.528Z,96.37
2018-09-23T07:08:55.527Z,96.66
2018-09-23T07:09:55.523Z,97.04
2018-09-23T07:10:55.520Z,96.75
2018-09-23T07:11:55.516Z,96.84
2018-09-23T07:12:55.516Z,96.47
2018-09-23T07:13:55.512Z,96.94
2018-09-23T07:14:55.514Z,96.47
2018-09-23T07:15:55.508Z,96.27
2018-09-23T07:16:55.506Z,96.75
2018-09-23T07:17:55.505Z,96.75
2018-09-23T07:18:55.501Z,96.56
2018-09-23T07:19:55.497Z,96.94
2018-09-23T07:20:55.500Z,97.52
2018-09-23T07:21:55.495Z,97.52
2018-09-23T07:22:55.492Z,97.23
2018-09-23T07:23:55.576Z,97.04
2018-09-23T07:24:55.487Z,96.75
2018-09-23T07:25:55.484Z,96.75
2018-09-23T07:26:55.483Z,96.84
2018-09-23T07:27:55.479Z,97.04
2018-09-23T07:28:55.478Z,97.13
2018-09-23T07:29:55.491Z,96.56
2018-09-23T07:30:55.473Z,96.75
2018-09-23T07:31:55.472Z,96.94
2018-09-23T07:32:55.468Z,96.66
2018-09-23T07:33:55.466Z,96.56
2018-09-23T07:34:55.467Z,96.66
2018-09-23T07:35:55.461Z,96.94
2018-09-23T07:36:55.479Z,96.84
2018-09-23T07:37:55.457Z,96.47
2018-09-23T07:38:55.457Z,96.94
2018-09-23T07:39:55.505Z,97.13
2018-09-23T07:40:55.452Z,96.75
2018-09-23T07:41:55.453Z,96.66
2018-09-23T07:42:55.450Z,96.56
2018-09-23T07:43:55.443Z,96.80
2018-09-23T07:44:55.443Z,96.75
2018-09-23T07:45:55.440Z,96.80
2018-09-23T07:46:55.437Z,96.80
2018-09-23T07:47:55.489Z,96.61
2018-09-23T07:48:55.434Z,97.18
2018-09-23T07:49:55.434Z,96.99
2018-09-23T07:50:55.430Z,96.80
2018-09-23T07:51:55.427Z,96.80
2018-09-23T07:52:55.429Z,97.08
2018-09-23T07:53:55.424Z,97.18
2018-09-23T07:54:55.422Z,96.32
2018-09-23T07:55:55.419Z,96.42
2018-09-23T07:56:55.418Z,96.89
2018-09-23T07:57:55.443Z,96.99
2018-09-23T07:58:55.413Z,96.61
2018-09-23T07:59:55.415Z,96.80
2018-09-23T08:00:55.415Z,96.80
2018-09-23T08:01:55.407Z,96.99
2018-09-23T08:02:55.405Z,97.37
2018-09-23T08:03:55.403Z,96.51
2018-09-23T08:04:55.401Z,96.61
2018-09-23T08:05:55.852Z,96.61
2018-09-23T08:06:55.397Z,96.89
2018-09-23T08:07:55.394Z,97.47
2018-09-23T08:08:55.395Z,96.51
2018-09-23T08:09:55.396Z,97.56
2018-09-23T08:10:55.391Z,96.70
2018-09-23T08:11:55.387Z,97.18
2018-09-23T08:12:55.507Z,96.99
2018-09-23T08:13:55.794Z,97.56
2018-09-23T08:14:55.922Z,97.18
2018-09-23T08:15:55.380Z,97.08
2018-09-23T08:16:55.379Z,97.08
2018-09-23T08:17:55.378Z,97.08
2018-09-23T08:18:55.375Z,97.37
2018-09-23T08:19:55.554Z,97.28
2018-09-23T08:20:55.433Z,97.66
2018-09-23T08:21:55.369Z,97.37
2018-09-23T08:22:55.387Z,97.85
2018-09-23T08:23:55.366Z,97.28
2018-09-23T08:24:55.415Z,97.56
2018-09-23T08:25:55.364Z,97.18
2018-09-23T08:26:55.360Z,97.37
2018-09-23T08:27:55.358Z,96.89
2018-09-23T08:28:55.357Z,96.70
2018-09-23T08:29:55.356Z,96.70
2018-09-23T08:30:55.354Z,97.28
2018-09-23T08:31:55.355Z,97.18
2018-09-23T08:32:55.386Z,96.80
2018-09-23T08:33:55.347Z,96.61
2018-09-23T08:34:55.348Z,96.70
2018-09-23T08:35:55.344Z,96.61
2018-09-23T08:36:56.233Z,96.03
2018-09-23T08:37:55.342Z,96.22
2018-09-23T08:38:55.340Z,96.32
2018-09-23T08:39:55.369Z,96.22
2018-09-23T08:40:55.336Z,96.13
2018-09-23T08:41:55.334Z,96.13
2018-09-23T08:42:55.377Z,96.80
2018-09-23T08:43:55.329Z,96.70
2018-09-23T08:44:55.327Z,96.42
2018-09-23T08:45:55.327Z,95.79
2018-09-23T08:46:55.330Z,96.13
2018-09-23T08:47:55.344Z,96.70
2018-09-23T08:48:55.322Z,96.51
2018-09-23T08:49:55.319Z,96.42
2018-09-23T08:50:55.317Z,96.66
2018-09-23T08:51:55.429Z,96.27
2018-09-23T08:52:55.314Z,96.37
2018-09-23T08:53:55.314Z,96.18
2018-09-23T08:54:55.311Z,95.70
2018-09-23T08:55:55.308Z,95.98
2018-09-23T08:56:55.309Z,95.89
2018-09-23T08:57:55.305Z,96.18
2018-09-23T08:58:55.304Z,96.08
2018-09-23T08:59:55.302Z,96.47
2018-09-23T09:00:55.300Z,95.61
2018-09-23T09:01:55.301Z,96.56
2018-09-23T09:02:55.299Z,96.84
2018-09-23T09:03:55.301Z,96.66
2018-09-23T09:04:55.296Z,96.94
2018-09-23T09:05:55.294Z,97.33
2018-09-23T09:06:55.290Z,97.42
2018-09-23T09:07:55.289Z,96.84
2018-09-23T09:08:55.288Z,96.94
2018-09-23T09:09:55.286Z,96.37
2018-09-23T09:10:55.290Z,96.18
2018-09-23T09:11:55.295Z,96.66
2018-09-23T09:12:55.282Z,97.18
2018-09-23T09:13:55.284Z,96.84
2018-09-23T09:14:55.278Z,97.04
2018-09-23T09:15:55.275Z,97.23
2018-09-23T09:16:55.278Z,97.52
2018-09-23T09:17:55.274Z,97.42
2018-09-23T09:18:55.278Z,97.13
2018-09-23T09:19:55.273Z,97.13
2018-09-23T09:20:55.267Z,96.75
2018-09-23T09:21:55.266Z,97.23
2018-09-23T09:22:55.265Z,97.23
2018-09-23T09:23:55.262Z,97.61
2018-09-23T09:24:55.260Z,97.61
2018-09-23T09:25:55.264Z,97.42
2018-09-23T09:26:55.289Z,97.61
2018-09-23T09:27:55.259Z,97.90
2018-09-23T09:28:55.257Z,97.90
2018-09-23T09:29:55.255Z,97.71
2018-09-23T09:30:55.253Z,97.52
2018-09-23T09:31:55.251Z,97.04
2018-09-23T09:32:55.249Z,97.23
2018-09-23T09:33:55.248Z,97.42
2018-09-23T09:34:55.255Z,97.52
2018-09-23T09:35:55.245Z,96.84
2018-09-23T09:36:55.244Z,96.75
2018-09-23T09:37:55.243Z,97.09
2018-09-23T09:38:55.243Z,97.04
2018-09-23T09:39:55.241Z,97.42
2018-09-23T09:40:55.237Z,97.56
2018-09-23T09:41:55.235Z,96.89
2018-09-23T09:42:55.236Z,97.18
2018-09-23T09:43:55.273Z,96.89
2018-09-23T09:44:55.240Z,97.38
2018-09-23T09:45:55.233Z,96.42
2018-09-23T09:46:55.230Z,96.51
2018-09-23T09:47:55.231Z,96.32
2018-09-23T09:48:55.227Z,95.84
2018-09-23T09:49:55.229Z,96.70
2018-09-23T09:50:55.238Z,96.80
2018-09-23T09:51:55.221Z,96.51
2018-09-23T09:52:55.220Z,97.09
2018-09-23T09:53:55.219Z,96.89
2018-09-23T09:54:55.231Z,96.99
2018-09-23T09:55:55.216Z,97.56
2018-09-23T09:56:55.215Z,97.09
2018-09-23T09:57:55.212Z,96.61
2018-09-23T09:58:55.217Z,96.47
2018-09-23T09:59:55.209Z,96.51
2018-09-23T10:00:55.210Z,96.80
2018-09-23T10:01:55.211Z,97.18
2018-09-23T10:02:55.207Z,97.66
2018-09-23T10:03:55.262Z,97.28
2018-09-23T10:04:55.204Z,96.70
2018-09-23T10:05:55.203Z,96.89
2018-09-23T10:06:55.201Z,97.18
2018-09-23T10:07:55.198Z,96.51
2018-09-23T10:08:55.394Z,96.42
2018-09-23T10:09:55.196Z,96.51
2018-09-23T10:10:55.196Z,95.75
2018-09-23T10:11:55.196Z,95.84
2018-09-23T10:12:55.190Z,95.94
2018-09-23T10:13:55.191Z,95.75
2018-09-23T10:14:55.189Z,95.75
2018-09-23T10:15:55.203Z,96.03
2018-09-23T10:16:55.191Z,95.84
2018-09-23T10:17:55.187Z,95.65
2018-09-23T10:18:55.184Z,95.94
2018-09-23T10:19:55.182Z,96.32
2018-09-23T10:20:55.181Z,95.89
2018-09-23T10:21:55.189Z,95.84
2018-09-23T10:22:55.225Z,95.36
2018-09-23T10:23:55.205Z,95.41
2018-09-23T10:24:55.175Z,94.93
2018-09-23T10:25:55.174Z,95.41
2018-09-23T10:26:55.174Z,95.89
2018-09-23T10:27:55.172Z,94.93
2018-09-23T10:28:55.172Z,94.55
2018-09-23T10:29:55.193Z,94.07
2018-09-23T10:30:55.185Z,93.88
2018-09-23T10:31:55.252Z,94.17
2018-09-23T10:32:55.167Z,94.74
2018-09-23T10:33:55.164Z,95.89
2018-09-23T10:34:55.163Z,95.51
2018-09-23T10:35:55.161Z,95.03
2018-09-23T10:36:55.166Z,94.64
2018-09-23T10:37:55.160Z,94.64
2018-09-23T10:38:55.158Z,94.45
2018-09-23T10:39:55.779Z,94.74
2018-09-23T10:40:55.155Z,94.17
2018-09-23T10:41:55.162Z,93.78
2018-09-23T10:42:55.154Z,94.45
2018-09-23T10:43:55.154Z,95.51
2018-09-23T10:44:55.155Z,94.84
2018-09-23T10:45:55.158Z,95.12
2018-09-23T10:46:55.150Z,94.93
2018-09-23T10:47:55.148Z,94.74
2018-09-23T10:48:55.144Z,94.64
2018-09-23T10:49:55.152Z,94.45
2018-09-23T10:50:55.144Z,95.12
2018-09-23T10:51:55.142Z,94.64
2018-09-23T10:52:55.142Z,95.12
2018-09-23T10:53:55.140Z,95.03
2018-09-23T10:54:55.142Z,94.55
2018-09-23T10:55:55.138Z,94.64
2018-09-23T10:56:55.137Z,94.64
2018-09-23T10:57:55.137Z,94.74
2018-09-23T10:58:55.137Z,95.03
2018-09-23T10:59:55.137Z,95.60
2018-09-23T11:00:55.133Z,95.70
2018-09-23T11:01:55.131Z,95.89
2018-09-23T11:02:55.173Z,95.70
2018-09-23T11:03:55.227Z,95.51
2018-09-23T11:04:55.128Z,96.08
2018-09-23T11:05:55.126Z,95.98
2018-09-23T11:06:55.128Z,96.37
2018-09-23T11:07:55.136Z,96.66
2018-09-23T11:08:55.124Z,96.75
2018-09-23T11:09:55.181Z,96.47
2018-09-23T11:10:55.122Z,96.66
2018-09-23T11:11:55.133Z,96.84
2018-09-23T11:12:55.118Z,97.33
2018-09-23T11:13:55.148Z,96.75
2018-09-23T11:14:55.116Z,97.14
2018-09-23T11:15:55.145Z,97.42
2018-09-23T11:16:55.147Z,96.94
2018-09-23T11:17:55.114Z,96.56
2018-09-23T11:18:55.113Z,96.56
2018-09-23T11:19:55.109Z,96.75
2018-09-23T11:20:55.109Z,97.23
2018-09-23T11:21:55.110Z,96.75
2018-09-23T11:22:55.110Z,96.75
2018-09-23T11:23:55.108Z,96.75
2018-09-23T11:24:55.184Z,97.04
2018-09-23T11:25:55.104Z,96.75
2018-09-23T11:26:55.104Z,96.94
2018-09-23T11:27:55.100Z,97.52
2018-09-23T11:28:55.101Z,97.61
2018-09-23T11:29:55.099Z,97.71
2018-09-23T11:30:55.100Z,98.00
2018-09-23T11:31:55.096Z,97.90
2018-09-23T11:32:55.096Z,97.23
2018-09-23T11:33:55.120Z,97.71
2018-09-23T11:34:55.097Z,98.00
2018-09-23T11:35:55.155Z,97.52
2018-09-23T11:36:55.094Z,97.23
2018-09-23T11:37:55.091Z,98.57
2018-09-23T11:38:55.091Z,97.90
2018-09-23T11:39:55.127Z,98.57
2018-09-23T11:40:55.088Z,98.57
2018-09-23T11:41:55.089Z,98.57
2018-09-23T11:42:55.093Z,97.61
2018-09-23T11:43:55.083Z,98.38
2018-09-23T11:44:55.082Z,98.67
2018-09-23T11:45:55.082Z,98.38
2018-09-23T11:46:55.081Z,98.57
2018-09-23T11:47:55.080Z,98.28
2018-09-23T11:48:55.080Z,98.10
2018-09-23T11:49:55.080Z,98.19
2018-09-23T11:50:55.076Z,97.52
2018-09-23T11:51:55.075Z,98.67
2018-09-23T11:52:55.073Z,98.86
2018-09-23T11:53:55.072Z,98.67
2018-09-23T11:54:55.089Z,98.28
2018-09-23T11:55:55.077Z,98.57
2018-09-23T11:56:55.068Z,98.67
2018-09-23T11:57:55.069Z,98.10
2018-09-23T11:58:55.094Z,98.86
2018-09-23T11:59:55.090Z,98.19
2018-09-23T12:00:55.063Z,97.90
2018-09-23T12:01:55.062Z,98.67
2018-09-23T12:02:55.104Z,98.67
2018-09-23T12:03:55.059Z,98.19
2018-09-23T12:04:55.059Z,98.76
2018-09-23T12:05:55.058Z,98.67
2018-09-23T12:06:55.055Z,98.67
2018-09-23T12:07:55.055Z,98.24
2018-09-23T12:08:55.055Z,98.47
2018-09-23T12:09:55.055Z,98.28
2018-09-23T12:10:55.121Z,98.62
2018-09-23T12:11:55.050Z,98.62
2018-09-23T12:12:55.057Z,97.85
2018-09-23T12:13:55.046Z,98.24
2018-09-23T12:14:55.101Z,98.76
2018-09-23T12:15:55.044Z,98.52
2018-09-23T12:16:55.044Z,98.24
2018-09-23T12:17:55.042Z,98.76
2018-09-23T12:18:55.039Z,98.57
2018-09-23T12:19:55.039Z,98.33
2018-09-23T12:20:55.036Z,98.24
2018-09-23T12:21:55.035Z,98.52
2018-09-23T12:22:55.035Z,98.81
2018-09-23T12:23:55.032Z,98.52
2018-09-23T12:24:55.040Z,98.24
2018-09-23T12:25:55.609Z,98.52
2018-09-23T12:26:56.246Z,98.52
2018-09-23T12:27:55.490Z,98.14
2018-09-23T12:28:55.024Z,98.71
2018-09-23T12:29:55.115Z,98.62
2018-09-23T12:30:55.023Z,98.05
2018-09-23T12:31:55.020Z,98.52
2018-09-23T12:32:55.019Z,98.33
2018-09-23T12:33:55.016Z,98.14
2018-09-23T12:34:55.017Z,98.62
2018-09-23T12:35:55.016Z,98.81
2018-09-23T12:36:55.015Z,97.95
2018-09-23T12:37:55.009Z,97.75
2018-09-23T12:38:55.008Z,98.52
2018-09-23T12:39:55.102Z,98.43
2018-09-23T12:40:55.005Z,98.52
2018-09-23T12:41:55.003Z,98.33
2018-09-23T12:42:55.433Z,98.71
2018-09-23T12:43:55.003Z,97.85
2018-09-23T12:44:55.001Z,97.66
2018-09-23T12:45:55.007Z,97.75
2018-09-23T12:46:54.994Z,97.66
2018-09-23T12:47:54.990Z,98.43
2018-09-23T12:48:54.992Z,97.47
2018-09-23T12:49:54.987Z,97.95
2018-09-23T12:50:54.987Z,97.95
2018-09-23T12:51:54.986Z,97.66
2018-09-23T12:52:54.993Z,98.43